sensor_id;sensor_type;location;lat;lon;timestamp;P1;durP1;ratioP1;P2;durP2;ratioP2
66893;SDS011;53801;55.786;49.142;2022-12-29T00:04:05;7.03;;;2.60;;
66893;SDS011;53801;55.786;49.142;2022-12-29T00:06:54;7.70;;;1.70;;
66893;SDS011;53801;55.786;49.142;2022-12-29T00:09:35;6.10;;;2.00;;
66893;SDS011;53801;55.786;49.142;2022-12-29T00:12:08;11.82;;;2.55;;
66893;SDS011;53801;55.786;49.142;2022-12-29T00:14:38;5.53;;;1.65;;
66893;SDS011;53801;55.786;49.142;2022-12-29T00:17:32;8.43;;;2.30;;
66893;SDS011;53801;55.786;49.142;2022-12-29T00:19:58;7.45;;;1.83;;
66893;SDS011;53801;55.786;49.142;2022-12-29T00:22:44;8.50;;;2.20;;
66893;SDS011;53801;55.786;49.142;2022-12-29T00:25:31;9.38;;;1.67;;
66893;SDS011;53801;55.786;49.142;2022-12-29T00:28:36;13.48;;;3.08;;
66893;SDS011;53801;55.786;49.142;2022-12-29T00:31:22;7.82;;;3.25;;
66893;SDS011;53801;55.786;49.142;2022-12-29T00:34:07;10.85;;;3.38;;
66893;SDS011;53801;55.786;49.142;2022-12-29T00:36:52;12.47;;;3.13;;
66893;SDS011;53801;55.786;49.142;2022-12-29T00:39:17;8.75;;;2.30;;
66893;SDS011;53801;55.786;49.142;2022-12-29T00:50:39;6.75;;;2.22;;
66893;SDS011;53801;55.786;49.142;2022-12-29T00:56:30;11.35;;;2.55;;
66893;SDS011;53801;55.786;49.142;2022-12-29T00:59:16;6.78;;;2.25;;
66893;SDS011;53801;55.786;49.142;2022-12-29T01:04:41;7.18;;;1.92;;
66893;SDS011;53801;55.786;49.142;2022-12-29T01:19:52;8.82;;;2.22;;
66893;SDS011;53801;55.786;49.142;2022-12-29T01:22:26;9.65;;;2.88;;
66893;SDS011;53801;55.786;49.142;2022-12-29T01:28:02;10.13;;;3.55;;
66893;SDS011;53801;55.786;49.142;2022-12-29T01:30:51;6.47;;;1.55;;
66893;SDS011;53801;55.786;49.142;2022-12-29T01:33:28;9.82;;;2.78;;
66893;SDS011;53801;55.786;49.142;2022-12-29T01:35:59;18.83;;;3.58;;
66893;SDS011;53801;55.786;49.142;2022-12-29T01:47:06;7.55;;;2.30;;
66893;SDS011;53801;55.786;49.142;2022-12-29T01:52:23;6.93;;;2.23;;
66893;SDS011;53801;55.786;49.142;2022-12-29T01:55:07;7.32;;;2.63;;
66893;SDS011;53801;55.786;49.142;2022-12-29T01:57:34;7.10;;;2.03;;
66893;SDS011;53801;55.786;49.142;2022-12-29T02:00:22;6.68;;;1.95;;
66893;SDS011;53801;55.786;49.142;2022-12-29T02:02:52;11.93;;;3.37;;
66893;SDS011;53801;55.786;49.142;2022-12-29T02:08:15;12.57;;;2.08;;
66893;SDS011;53801;55.786;49.142;2022-12-29T02:11:11;9.27;;;2.58;;
66893;SDS011;53801;55.786;49.142;2022-12-29T02:13:46;9.38;;;2.22;;
66893;SDS011;53801;55.786;49.142;2022-12-29T02:25:14;11.85;;;3.63;;
66893;SDS011;53801;55.786;49.142;2022-12-29T02:28:17;10.98;;;3.20;;
66893;SDS011;53801;55.786;49.142;2022-12-29T02:31:26;10.10;;;2.40;;
66893;SDS011;53801;55.786;49.142;2022-12-29T02:39:51;12.50;;;3.50;;
66893;SDS011;53801;55.786;49.142;2022-12-29T02:45:12;13.05;;;3.58;;
66893;SDS011;53801;55.786;49.142;2022-12-29T02:48:42;9.15;;;3.08;;
66893;SDS011;53801;55.786;49.142;2022-12-29T02:51:02;4.53;;;1.70;;
66893;SDS011;53801;55.786;49.142;2022-12-29T02:53:50;6.13;;;2.43;;
66893;SDS011;53801;55.786;49.142;2022-12-29T02:56:56;6.70;;;2.20;;
66893;SDS011;53801;55.786;49.142;2022-12-29T02:59:40;9.60;;;2.83;;
66893;SDS011;53801;55.786;49.142;2022-12-29T03:08:28;7.20;;;2.17;;
66893;SDS011;53801;55.786;49.142;2022-12-29T03:17:58;9.57;;;3.53;;
66893;SDS011;53801;55.786;49.142;2022-12-29T03:20:31;11.47;;;3.20;;
66893;SDS011;53801;55.786;49.142;2022-12-29T03:23:13;5.93;;;1.42;;
66893;SDS011;53801;55.786;49.142;2022-12-29T03:25:46;8.40;;;2.42;;
66893;SDS011;53801;55.786;49.142;2022-12-29T03:28:38;10.02;;;2.90;;
66893;SDS011;53801;55.786;49.142;2022-12-29T03:31:13;10.00;;;2.33;;
66893;SDS011;53801;55.786;49.142;2022-12-29T03:34:25;11.45;;;3.08;;
66893;SDS011;53801;55.786;49.142;2022-12-29T03:39:38;9.98;;;3.35;;
66893;SDS011;53801;55.786;49.142;2022-12-29T03:42:16;11.75;;;3.33;;
66893;SDS011;53801;55.786;49.142;2022-12-29T03:44:46;6.53;;;2.23;;
66893;SDS011;53801;55.786;49.142;2022-12-29T03:47:25;9.80;;;3.08;;
66893;SDS011;53801;55.786;49.142;2022-12-29T03:50:02;9.40;;;3.22;;
66893;SDS011;53801;55.786;49.142;2022-12-29T03:52:28;9.05;;;2.70;;
66893;SDS011;53801;55.786;49.142;2022-12-29T03:54:59;11.50;;;3.37;;
66893;SDS011;53801;55.786;49.142;2022-12-29T04:00:23;14.70;;;3.58;;
66893;SDS011;53801;55.786;49.142;2022-12-29T04:03:17;9.50;;;2.53;;
66893;SDS011;53801;55.786;49.142;2022-12-29T04:06:25;6.32;;;2.25;;
66893;SDS011;53801;55.786;49.142;2022-12-29T04:09:11;5.77;;;1.53;;
66893;SDS011;53801;55.786;49.142;2022-12-29T04:12:11;14.60;;;2.92;;
66893;SDS011;53801;55.786;49.142;2022-12-29T04:14:55;7.32;;;1.83;;
66893;SDS011;53801;55.786;49.142;2022-12-29T04:17:43;12.88;;;2.75;;
66893;SDS011;53801;55.786;49.142;2022-12-29T04:20:14;7.10;;;2.67;;
66893;SDS011;53801;55.786;49.142;2022-12-29T04:23:04;9.90;;;2.88;;
66893;SDS011;53801;55.786;49.142;2022-12-29T04:25:30;16.48;;;2.83;;
66893;SDS011;53801;55.786;49.142;2022-12-29T04:27:56;11.45;;;2.92;;
66893;SDS011;53801;55.786;49.142;2022-12-29T04:30:21;10.80;;;3.00;;
66893;SDS011;53801;55.786;49.142;2022-12-29T04:32:47;9.43;;;3.17;;
66893;SDS011;53801;55.786;49.142;2022-12-29T04:35:20;10.38;;;2.78;;
66893;SDS011;53801;55.786;49.142;2022-12-29T04:37:58;11.88;;;3.05;;
66893;SDS011;53801;55.786;49.142;2022-12-29T04:40:39;9.23;;;2.33;;
66893;SDS011;53801;55.786;49.142;2022-12-29T04:43:12;11.33;;;3.83;;
66893;SDS011;53801;55.786;49.142;2022-12-29T04:45:56;9.68;;;2.33;;
66893;SDS011;53801;55.786;49.142;2022-12-29T04:48:24;11.52;;;3.40;;
66893;SDS011;53801;55.786;49.142;2022-12-29T04:51:01;9.10;;;2.65;;
66893;SDS011;53801;55.786;49.142;2022-12-29T04:53:36;9.05;;;3.20;;
66893;SDS011;53801;55.786;49.142;2022-12-29T04:56:04;8.50;;;2.07;;
66893;SDS011;53801;55.786;49.142;2022-12-29T05:04:33;6.88;;;2.65;;
66893;SDS011;53801;55.786;49.142;2022-12-29T05:18:52;10.48;;;2.78;;
66893;SDS011;53801;55.786;49.142;2022-12-29T05:21:59;10.43;;;2.45;;
66893;SDS011;53801;55.786;49.142;2022-12-29T05:27:38;9.55;;;3.35;;
66893;SDS011;53801;55.786;49.142;2022-12-29T05:30:19;12.27;;;3.28;;
66893;SDS011;53801;55.786;49.142;2022-12-29T05:39:52;8.48;;;2.13;;
66893;SDS011;53801;55.786;49.142;2022-12-29T06:11:32;8.80;;;3.30;;
66893;SDS011;53801;55.786;49.142;2022-12-29T06:25:25;11.88;;;3.28;;
66893;SDS011;53801;55.786;49.142;2022-12-29T06:28:15;11.25;;;3.03;;
66893;SDS011;53801;55.786;49.142;2022-12-29T06:31:24;8.33;;;2.37;;
66893;SDS011;53801;55.786;49.142;2022-12-29T07:15:25;7.93;;;2.47;;
66893;SDS011;53801;55.786;49.142;2022-12-29T07:18:02;9.43;;;2.53;;
66893;SDS011;53801;55.786;49.142;2022-12-29T07:21:08;6.60;;;2.03;;
66893;SDS011;53801;55.786;49.142;2022-12-29T07:23:38;8.43;;;2.57;;
66893;SDS011;53801;55.786;49.142;2022-12-29T07:29:07;10.73;;;2.85;;
66893;SDS011;53801;55.786;49.142;2022-12-29T07:48:16;9.98;;;2.20;;
66893;SDS011;53801;55.786;49.142;2022-12-29T07:51:26;8.98;;;2.20;;
66893;SDS011;53801;55.786;49.142;2022-12-29T07:54:55;9.00;;;2.23;;
66893;SDS011;53801;55.786;49.142;2022-12-29T08:02:58;7.13;;;2.65;;
66893;SDS011;53801;55.786;49.142;2022-12-29T09:26:53;8.02;;;2.20;;
66893;SDS011;53801;55.786;49.142;2022-12-29T09:33:28;8.02;;;2.17;;
66893;SDS011;53801;55.786;49.142;2022-12-29T10:51:20;7.67;;;2.17;;
66893;SDS011;53801;55.786;49.142;2022-12-29T11:40:26;6.32;;;2.17;;
66893;SDS011;53801;55.786;49.142;2022-12-29T12:50:14;6.40;;;1.95;;
66893;SDS011;53801;55.786;49.142;2022-12-29T12:52:50;6.03;;;1.53;;
66893;SDS011;53801;55.786;49.142;2022-12-29T13:01:55;6.18;;;1.48;;
66893;SDS011;53801;55.786;49.142;2022-12-29T13:12:48;11.75;;;2.20;;
66893;SDS011;53801;55.786;49.142;2022-12-29T13:32:43;6.90;;;1.93;;
66893;SDS011;53801;55.786;49.142;2022-12-29T13:37:44;6.77;;;1.60;;
66893;SDS011;53801;55.786;49.142;2022-12-29T13:40:13;4.50;;;1.50;;
66893;SDS011;53801;55.786;49.142;2022-12-29T13:42:40;7.90;;;2.47;;
66893;SDS011;53801;55.786;49.142;2022-12-29T13:45:06;8.82;;;2.10;;
66893;SDS011;53801;55.786;49.142;2022-12-29T13:47:37;8.87;;;2.50;;
66893;SDS011;53801;55.786;49.142;2022-12-29T13:50:05;7.32;;;2.53;;
66893;SDS011;53801;55.786;49.142;2022-12-29T13:52:45;9.48;;;2.38;;
66893;SDS011;53801;55.786;49.142;2022-12-29T13:55:32;9.93;;;2.33;;
66893;SDS011;53801;55.786;49.142;2022-12-29T14:06:31;6.55;;;1.70;;
66893;SDS011;53801;55.786;49.142;2022-12-29T14:09:04;6.72;;;2.20;;
66893;SDS011;53801;55.786;49.142;2022-12-29T14:11:37;9.82;;;3.05;;
66893;SDS011;53801;55.786;49.142;2022-12-29T14:17:08;9.13;;;2.75;;
66893;SDS011;53801;55.786;49.142;2022-12-29T14:19:34;6.65;;;2.67;;
66893;SDS011;53801;55.786;49.142;2022-12-29T14:22:02;11.15;;;2.92;;
66893;SDS011;53801;55.786;49.142;2022-12-29T14:26:53;9.03;;;2.00;;
66893;SDS011;53801;55.786;49.142;2022-12-29T14:32:09;9.00;;;1.90;;
66893;SDS011;53801;55.786;49.142;2022-12-29T14:34:43;6.95;;;2.67;;
66893;SDS011;53801;55.786;49.142;2022-12-29T14:37:21;7.57;;;2.37;;
66893;SDS011;53801;55.786;49.142;2022-12-29T14:39:48;10.32;;;2.53;;
66893;SDS011;53801;55.786;49.142;2022-12-29T14:42:14;8.33;;;2.43;;
66893;SDS011;53801;55.786;49.142;2022-12-29T14:47:14;12.85;;;2.67;;
66893;SDS011;53801;55.786;49.142;2022-12-29T14:49:42;12.98;;;2.28;;
66893;SDS011;53801;55.786;49.142;2022-12-29T14:54:41;9.70;;;2.25;;
66893;SDS011;53801;55.786;49.142;2022-12-29T15:00:13;7.88;;;2.13;;
66893;SDS011;53801;55.786;49.142;2022-12-29T15:02:40;8.50;;;2.10;;
66893;SDS011;53801;55.786;49.142;2022-12-29T15:05:22;9.83;;;2.47;;
66893;SDS011;53801;55.786;49.142;2022-12-29T15:07:52;6.85;;;2.30;;
66893;SDS011;53801;55.786;49.142;2022-12-29T15:10:18;9.68;;;2.75;;
66893;SDS011;53801;55.786;49.142;2022-12-29T15:12:54;8.65;;;2.15;;
66893;SDS011;53801;55.786;49.142;2022-12-29T15:15:24;11.90;;;2.58;;
66893;SDS011;53801;55.786;49.142;2022-12-29T15:17:50;9.13;;;2.23;;
66893;SDS011;53801;55.786;49.142;2022-12-29T15:20:23;9.20;;;1.85;;
66893;SDS011;53801;55.786;49.142;2022-12-29T15:22:57;7.13;;;2.80;;
66893;SDS011;53801;55.786;49.142;2022-12-29T15:25:23;6.55;;;2.38;;
66893;SDS011;53801;55.786;49.142;2022-12-29T15:27:52;7.72;;;2.00;;
66893;SDS011;53801;55.786;49.142;2022-12-29T15:30:19;7.95;;;2.20;;
66893;SDS011;53801;55.786;49.142;2022-12-29T15:32:45;6.67;;;2.07;;
66893;SDS011;53801;55.786;49.142;2022-12-29T15:35:25;8.20;;;2.17;;
66893;SDS011;53801;55.786;49.142;2022-12-29T15:37:51;8.65;;;2.47;;
66893;SDS011;53801;55.786;49.142;2022-12-29T15:42:58;9.82;;;2.25;;
66893;SDS011;53801;55.786;49.142;2022-12-29T15:45:30;8.50;;;2.20;;
66893;SDS011;53801;55.786;49.142;2022-12-29T15:47:57;6.50;;;2.40;;
66893;SDS011;53801;55.786;49.142;2022-12-29T15:50:25;9.45;;;2.28;;
66893;SDS011;53801;55.786;49.142;2022-12-29T15:52:52;9.55;;;2.78;;
66893;SDS011;53801;55.786;49.142;2022-12-29T15:55:32;8.13;;;2.83;;
66893;SDS011;53801;55.786;49.142;2022-12-29T15:57:59;11.70;;;2.47;;
66893;SDS011;53801;55.786;49.142;2022-12-29T16:00:29;8.80;;;2.40;;
66893;SDS011;53801;55.786;49.142;2022-12-29T16:02:55;6.30;;;1.70;;
66893;SDS011;53801;55.786;49.142;2022-12-29T16:05:23;12.38;;;2.58;;
66893;SDS011;53801;55.786;49.142;2022-12-29T16:07:56;10.32;;;2.63;;
66893;SDS011;53801;55.786;49.142;2022-12-29T16:10:42;6.73;;;1.90;;
66893;SDS011;53801;55.786;49.142;2022-12-29T16:18:40;6.75;;;1.67;;
66893;SDS011;53801;55.786;49.142;2022-12-29T16:21:13;8.27;;;2.35;;
66893;SDS011;53801;55.786;49.142;2022-12-29T16:24:07;9.47;;;2.90;;
66893;SDS011;53801;55.786;49.142;2022-12-29T16:26:39;8.20;;;2.63;;
66893;SDS011;53801;55.786;49.142;2022-12-29T16:29:12;10.13;;;2.72;;
66893;SDS011;53801;55.786;49.142;2022-12-29T16:31:59;6.07;;;1.95;;
66893;SDS011;53801;55.786;49.142;2022-12-29T16:34:29;9.83;;;2.87;;
66893;SDS011;53801;55.786;49.142;2022-12-29T16:36:56;16.38;;;5.10;;
66893;SDS011;53801;55.786;49.142;2022-12-29T16:39:27;9.30;;;2.35;;
66893;SDS011;53801;55.786;49.142;2022-12-29T16:41:55;9.13;;;2.47;;
66893;SDS011;53801;55.786;49.142;2022-12-29T16:49:27;8.07;;;2.42;;
66893;SDS011;53801;55.786;49.142;2022-12-29T16:51:53;8.63;;;3.27;;
66893;SDS011;53801;55.786;49.142;2022-12-29T16:54:21;8.15;;;2.80;;
66893;SDS011;53801;55.786;49.142;2022-12-29T16:56:48;9.60;;;3.33;;
66893;SDS011;53801;55.786;49.142;2022-12-29T16:59:25;11.47;;;3.30;;
66893;SDS011;53801;55.786;49.142;2022-12-29T17:01:54;9.45;;;3.47;;
66893;SDS011;53801;55.786;49.142;2022-12-29T17:04:28;6.18;;;1.95;;
66893;SDS011;53801;55.786;49.142;2022-12-29T17:07:01;9.23;;;2.97;;
66893;SDS011;53801;55.786;49.142;2022-12-29T17:09:27;9.52;;;2.72;;
66893;SDS011;53801;55.786;49.142;2022-12-29T17:11:58;7.57;;;2.15;;
66893;SDS011;53801;55.786;49.142;2022-12-29T17:16:57;10.55;;;2.85;;
66893;SDS011;53801;55.786;49.142;2022-12-29T17:22:45;7.10;;;3.40;;
66893;SDS011;53801;55.786;49.142;2022-12-29T17:25:23;7.20;;;2.40;;
66893;SDS011;53801;55.786;49.142;2022-12-29T17:27:53;10.73;;;3.10;;
66893;SDS011;53801;55.786;49.142;2022-12-29T17:42:56;6.68;;;2.13;;
66893;SDS011;53801;55.786;49.142;2022-12-29T18:01:24;8.05;;;2.47;;
66893;SDS011;53801;55.786;49.142;2022-12-29T18:03:50;9.00;;;2.63;;
66893;SDS011;53801;55.786;49.142;2022-12-29T18:11:55;14.77;;;3.63;;
66893;SDS011;53801;55.786;49.142;2022-12-29T18:14:26;9.45;;;2.92;;
66893;SDS011;53801;55.786;49.142;2022-12-29T18:20:16;10.15;;;2.90;;
66893;SDS011;53801;55.786;49.142;2022-12-29T18:22:44;11.37;;;3.50;;
66893;SDS011;53801;55.786;49.142;2022-12-29T18:25:29;10.88;;;3.97;;
66893;SDS011;53801;55.786;49.142;2022-12-29T18:34:13;8.98;;;3.53;;
66893;SDS011;53801;55.786;49.142;2022-12-29T18:36:38;10.15;;;3.45;;
66893;SDS011;53801;55.786;49.142;2022-12-29T18:39:18;10.00;;;3.22;;
66893;SDS011;53801;55.786;49.142;2022-12-29T18:48:28;13.15;;;3.55;;
66893;SDS011;53801;55.786;49.142;2022-12-29T18:50:54;8.33;;;3.00;;
66893;SDS011;53801;55.786;49.142;2022-12-29T18:53:21;18.23;;;4.03;;
66893;SDS011;53801;55.786;49.142;2022-12-29T18:55:47;12.15;;;3.75;;
66893;SDS011;53801;55.786;49.142;2022-12-29T18:58:13;15.17;;;3.97;;
66893;SDS011;53801;55.786;49.142;2022-12-29T19:00:38;9.47;;;3.53;;
66893;SDS011;53801;55.786;49.142;2022-12-29T19:03:04;10.30;;;3.22;;
66893;SDS011;53801;55.786;49.142;2022-12-29T19:06:03;16.47;;;3.57;;
66893;SDS011;53801;55.786;49.142;2022-12-29T19:08:22;10.82;;;3.70;;
66893;SDS011;53801;55.786;49.142;2022-12-29T19:10:50;12.95;;;4.10;;
66893;SDS011;53801;55.786;49.142;2022-12-29T19:13:18;13.53;;;3.77;;
66893;SDS011;53801;55.786;49.142;2022-12-29T19:15:44;12.85;;;4.00;;
66893;SDS011;53801;55.786;49.142;2022-12-29T19:18:13;13.70;;;3.92;;
66893;SDS011;53801;55.786;49.142;2022-12-29T19:20:41;12.02;;;3.60;;
66893;SDS011;53801;55.786;49.142;2022-12-29T19:23:09;14.57;;;3.90;;
66893;SDS011;53801;55.786;49.142;2022-12-29T19:25:35;12.57;;;4.07;;
66893;SDS011;53801;55.786;49.142;2022-12-29T19:28:00;12.93;;;3.70;;
66893;SDS011;53801;55.786;49.142;2022-12-29T19:30:26;14.47;;;4.50;;
66893;SDS011;53801;55.786;49.142;2022-12-29T19:32:52;11.15;;;4.18;;
66893;SDS011;53801;55.786;49.142;2022-12-29T19:35:19;13.30;;;4.40;;
66893;SDS011;53801;55.786;49.142;2022-12-29T19:38:04;12.80;;;4.20;;
66893;SDS011;53801;55.786;49.142;2022-12-29T19:40:30;11.25;;;3.78;;
66893;SDS011;53801;55.786;49.142;2022-12-29T19:42:55;11.40;;;3.70;;
66893;SDS011;53801;55.786;49.142;2022-12-29T19:45:21;12.52;;;4.03;;
66893;SDS011;53801;55.786;49.142;2022-12-29T19:55:43;13.37;;;3.77;;
66893;SDS011;53801;55.786;49.142;2022-12-29T19:58:09;15.68;;;4.50;;
66893;SDS011;53801;55.786;49.142;2022-12-29T20:00:36;16.90;;;3.88;;
66893;SDS011;53801;55.786;49.142;2022-12-29T20:03:02;13.73;;;4.45;;
66893;SDS011;53801;55.786;49.142;2022-12-29T20:08:53;10.23;;;4.00;;
66893;SDS011;53801;55.786;49.142;2022-12-29T20:11:22;11.38;;;3.88;;
66893;SDS011;53801;55.786;49.142;2022-12-29T20:13:50;15.70;;;4.53;;
66893;SDS011;53801;55.786;49.142;2022-12-29T20:16:17;12.05;;;4.47;;
66893;SDS011;53801;55.786;49.142;2022-12-29T20:18:42;15.50;;;4.13;;
66893;SDS011;53801;55.786;49.142;2022-12-29T20:21:12;14.27;;;4.50;;
66893;SDS011;53801;55.786;49.142;2022-12-29T20:23:38;12.27;;;3.70;;
66893;SDS011;53801;55.786;49.142;2022-12-29T20:26:04;15.68;;;3.72;;
66893;SDS011;53801;55.786;49.142;2022-12-29T20:32:28;14.50;;;4.07;;
66893;SDS011;53801;55.786;49.142;2022-12-29T20:34:53;14.20;;;3.90;;
66893;SDS011;53801;55.786;49.142;2022-12-29T20:37:20;15.52;;;4.20;;
66893;SDS011;53801;55.786;49.142;2022-12-29T20:39:46;14.07;;;4.38;;
66893;SDS011;53801;55.786;49.142;2022-12-29T20:42:11;10.43;;;3.70;;
66893;SDS011;53801;55.786;49.142;2022-12-29T20:44:40;16.85;;;4.47;;
66893;SDS011;53801;55.786;49.142;2022-12-29T20:47:05;13.97;;;4.40;;
66893;SDS011;53801;55.786;49.142;2022-12-29T20:49:32;8.13;;;3.00;;
66893;SDS011;53801;55.786;49.142;2022-12-29T20:51:59;13.82;;;4.47;;
66893;SDS011;53801;55.786;49.142;2022-12-29T20:54:25;16.50;;;3.97;;
66893;SDS011;53801;55.786;49.142;2022-12-29T20:56:50;15.07;;;4.60;;
66893;SDS011;53801;55.786;49.142;2022-12-29T20:59:16;10.43;;;3.50;;
66893;SDS011;53801;55.786;49.142;2022-12-29T21:01:41;11.70;;;3.90;;
66893;SDS011;53801;55.786;49.142;2022-12-29T21:04:12;15.70;;;4.47;;
66893;SDS011;53801;55.786;49.142;2022-12-29T21:06:37;14.63;;;4.10;;
66893;SDS011;53801;55.786;49.142;2022-12-29T21:09:03;15.52;;;4.45;;
66893;SDS011;53801;55.786;49.142;2022-12-29T21:11:29;11.30;;;4.03;;
66893;SDS011;53801;55.786;49.142;2022-12-29T21:13:54;14.13;;;4.07;;
66893;SDS011;53801;55.786;49.142;2022-12-29T21:16:20;15.23;;;4.63;;
66893;SDS011;53801;55.786;49.142;2022-12-29T21:18:46;16.13;;;4.67;;
66893;SDS011;53801;55.786;49.142;2022-12-29T21:21:17;12.18;;;3.72;;
66893;SDS011;53801;55.786;49.142;2022-12-29T21:23:42;10.82;;;3.78;;
66893;SDS011;53801;55.786;49.142;2022-12-29T21:26:08;12.47;;;4.70;;
66893;SDS011;53801;55.786;49.142;2022-12-29T21:28:38;17.35;;;4.88;;
66893;SDS011;53801;55.786;49.142;2022-12-29T21:33:41;13.18;;;4.35;;
66893;SDS011;53801;55.786;49.142;2022-12-29T21:36:07;12.87;;;4.47;;
66893;SDS011;53801;55.786;49.142;2022-12-29T21:38:33;11.07;;;4.10;;
66893;SDS011;53801;55.786;49.142;2022-12-29T21:41:09;12.25;;;4.15;;
66893;SDS011;53801;55.786;49.142;2022-12-29T21:43:35;13.73;;;3.92;;
66893;SDS011;53801;55.786;49.142;2022-12-29T21:46:01;15.00;;;4.43;;
66893;SDS011;53801;55.786;49.142;2022-12-29T21:48:26;12.77;;;4.25;;
66893;SDS011;53801;55.786;49.142;2022-12-29T21:51:04;10.37;;;3.50;;
66893;SDS011;53801;55.786;49.142;2022-12-29T21:53:53;12.70;;;3.63;;
66893;SDS011;53801;55.786;49.142;2022-12-29T21:56:22;13.38;;;3.75;;
66893;SDS011;53801;55.786;49.142;2022-12-29T21:58:50;13.98;;;4.28;;
66893;SDS011;53801;55.786;49.142;2022-12-29T22:01:54;17.52;;;4.13;;
66893;SDS011;53801;55.786;49.142;2022-12-29T22:04:38;11.23;;;3.73;;
66893;SDS011;53801;55.786;49.142;2022-12-29T22:07:22;10.23;;;3.47;;
66893;SDS011;53801;55.786;49.142;2022-12-29T22:10:06;14.82;;;4.47;;
66893;SDS011;53801;55.786;49.142;2022-12-29T22:12:51;13.85;;;3.75;;
66893;SDS011;53801;55.786;49.142;2022-12-29T22:15:24;11.65;;;3.97;;
66893;SDS011;53801;55.786;49.142;2022-12-29T22:17:51;14.40;;;3.87;;
66893;SDS011;53801;55.786;49.142;2022-12-29T22:20:17;12.85;;;4.30;;
66893;SDS011;53801;55.786;49.142;2022-12-29T22:23:01;12.98;;;4.10;;
66893;SDS011;53801;55.786;49.142;2022-12-29T22:25:27;15.75;;;5.32;;
66893;SDS011;53801;55.786;49.142;2022-12-29T22:27:53;14.30;;;4.17;;
66893;SDS011;53801;55.786;49.142;2022-12-29T22:30:18;13.68;;;3.92;;
66893;SDS011;53801;55.786;49.142;2022-12-29T22:32:44;10.40;;;4.07;;
66893;SDS011;53801;55.786;49.142;2022-12-29T22:35:09;13.97;;;3.43;;
66893;SDS011;53801;55.786;49.142;2022-12-29T22:37:36;11.25;;;4.25;;
66893;SDS011;53801;55.786;49.142;2022-12-29T22:40:02;12.70;;;4.35;;
66893;SDS011;53801;55.786;49.142;2022-12-29T22:42:28;11.60;;;4.63;;
66893;SDS011;53801;55.786;49.142;2022-12-29T22:44:54;13.37;;;3.90;;
66893;SDS011;53801;55.786;49.142;2022-12-29T22:47:29;13.77;;;4.03;;
66893;SDS011;53801;55.786;49.142;2022-12-29T22:50:17;12.38;;;5.05;;
66893;SDS011;53801;55.786;49.142;2022-12-29T22:52:42;12.30;;;3.87;;
66893;SDS011;53801;55.786;49.142;2022-12-29T22:55:08;13.88;;;4.18;;
66893;SDS011;53801;55.786;49.142;2022-12-29T22:57:36;15.20;;;4.37;;
66893;SDS011;53801;55.786;49.142;2022-12-29T23:00:03;14.00;;;4.78;;
66893;SDS011;53801;55.786;49.142;2022-12-29T23:02:30;15.47;;;4.50;;
66893;SDS011;53801;55.786;49.142;2022-12-29T23:04:56;14.95;;;4.22;;
66893;SDS011;53801;55.786;49.142;2022-12-29T23:07:21;14.23;;;3.93;;
66893;SDS011;53801;55.786;49.142;2022-12-29T23:09:47;13.23;;;4.10;;
66893;SDS011;53801;55.786;49.142;2022-12-29T23:12:12;13.10;;;4.20;;
66893;SDS011;53801;55.786;49.142;2022-12-29T23:14:38;15.32;;;4.30;;
66893;SDS011;53801;55.786;49.142;2022-12-29T23:17:03;13.50;;;3.90;;
66893;SDS011;53801;55.786;49.142;2022-12-29T23:26:16;16.17;;;4.10;;
66893;SDS011;53801;55.786;49.142;2022-12-29T23:28:41;14.52;;;4.03;;
66893;SDS011;53801;55.786;49.142;2022-12-29T23:31:07;12.43;;;3.23;;
66893;SDS011;53801;55.786;49.142;2022-12-29T23:33:32;14.10;;;4.37;;
66893;SDS011;53801;55.786;49.142;2022-12-29T23:35:58;17.73;;;4.28;;
66893;SDS011;53801;55.786;49.142;2022-12-29T23:38:23;15.48;;;4.65;;
66893;SDS011;53801;55.786;49.142;2022-12-29T23:40:48;12.53;;;4.53;;
66893;SDS011;53801;55.786;49.142;2022-12-29T23:43:14;9.20;;;3.50;;
66893;SDS011;53801;55.786;49.142;2022-12-29T23:45:39;18.57;;;4.57;;
66893;SDS011;53801;55.786;49.142;2022-12-29T23:48:05;14.27;;;4.83;;
66893;SDS011;53801;55.786;49.142;2022-12-29T23:50:30;17.58;;;4.72;;
66893;SDS011;53801;55.786;49.142;2022-12-29T23:52:56;14.53;;;4.10;;
66893;SDS011;53801;55.786;49.142;2022-12-29T23:55:22;13.97;;;4.60;;
66893;SDS011;53801;55.786;49.142;2022-12-29T23:57:47;15.77;;;5.35;;
